VLVT/VTE METAR and TAF weather

Enter ICAO airport designator
Station Type Date Time Source
VLVT METAR 2019/08/25 07:30 UTC NOAA

VLVT 250730Z 14006KT 4000 RA SCT013 BKN040 BKN083 26/25 Q1003 NOSIG


Station Type Date Time Source
VLVT Decoded METAR 2019/08/25 07:30 UTC NOAA

Station name not available
Aug 25, 2019 - 03:30 AM EDT / 2019.08.25 0730 UTC
Wind: from the SE (140 degrees) at 7 MPH (6 KT):0
Visibility: 2 mile(s):0
Sky conditions: mostly cloudy
Weather: rain
Temperature: 78 F (26 C)
Dew Point: 77 F (25 C)
Relative Humidity: 94%
Pressure (altimeter): 29.62 in. Hg (1003 hPa)
ob: VLVT 250730Z 14006KT 4000 RA SCT013 BKN040 BKN083 26/25 Q1003 NOSIG
cycle: 7

Station Type Date Time Source
VLVT TAF 2019/08/25 06:39 UTC NOAA

TAF TAF VLVT 250500Z 2506/2606 22006KT 9999 SCT016 FEW023TCU SCT020 SCT200
TEMPO 2512/2517 4000 TS SCT016 FERW027CB BKN100

Example: see airport list